createdAt,value
2018-11-10T00:00:49.823Z,47.03
2018-11-10T00:03:18.419Z,54.83
2018-11-10T00:05:49.835Z,52.40
2018-11-10T00:08:23.948Z,56.17
2018-11-10T00:10:52.310Z,55.40
2018-11-10T00:13:20.723Z,53.37
2018-11-10T00:15:49.065Z,44.83
2018-11-10T00:18:17.417Z,44.27
2018-11-10T00:20:45.809Z,46.60
2018-11-10T00:23:14.225Z,47.00
2018-11-10T00:25:42.606Z,41.87
2018-11-10T00:28:10.989Z,43.77
2018-11-10T00:30:39.350Z,48.27
2018-11-10T00:33:07.733Z,50.33
2018-11-10T00:35:36.102Z,49.47
2018-11-10T00:38:04.943Z,49.67
2018-11-10T00:40:33.316Z,48.20
2018-11-10T00:43:02.659Z,50.80
2018-11-10T00:45:31.181Z,53.23
2018-11-10T00:50:39.510Z,52.70
2018-11-10T00:53:07.910Z,49.67
2018-11-10T00:55:36.241Z,57.27
2018-11-10T00:58:05.378Z,50.90
2018-11-10T01:00:33.773Z,44.97
2018-11-10T01:03:02.120Z,47.87
2018-11-10T01:05:30.841Z,45.60
2018-11-10T01:07:59.399Z,47.07
2018-11-10T01:10:35.684Z,44.60
2018-11-10T01:13:17.304Z,52.23
2018-11-10T01:22:38.797Z,46.13
2018-11-10T01:25:08.620Z,46.60
2018-11-10T01:27:37.051Z,50.07
2018-11-10T01:30:07.285Z,48.83
2018-11-10T01:32:35.926Z,46.47
2018-11-10T01:35:04.375Z,50.27
2018-11-10T01:37:32.731Z,49.83
2018-11-10T01:40:01.385Z,42.33
2018-11-10T01:42:29.709Z,45.73
2018-11-10T01:44:58.578Z,44.43
2018-11-10T01:47:27.038Z,48.10
2018-11-10T01:49:55.461Z,44.20
2018-11-10T01:52:23.918Z,49.80
2018-11-10T01:54:52.372Z,45.33
2018-11-10T01:57:20.789Z,44.83
2018-11-10T01:59:52.582Z,44.37
2018-11-10T02:02:20.985Z,44.07
2018-11-10T02:04:49.454Z,40.73
2018-11-10T02:07:21.723Z,42.17
2018-11-10T02:09:50.138Z,48.23
2018-11-10T02:12:18.446Z,48.30
2018-11-10T02:14:46.821Z,42.80
2018-11-10T02:17:15.212Z,48.67
2018-11-10T02:19:43.584Z,46.93
2018-11-10T02:22:18.989Z,45.80
2018-11-10T02:24:47.325Z,43.27
2018-11-10T02:27:22.292Z,44.63
2018-11-10T02:29:52.162Z,42.87
2018-11-10T02:32:20.784Z,45.70
2018-11-10T02:34:49.573Z,46.77
2018-11-10T02:37:18.075Z,42.70
2018-11-10T02:39:46.692Z,46.20
2018-11-10T02:42:15.144Z,38.50
2018-11-10T02:44:43.440Z,41.20
2018-11-10T02:47:11.967Z,46.67
2018-11-10T02:49:40.419Z,47.77
2018-11-10T02:52:08.767Z,41.90
2018-11-10T02:54:37.269Z,45.57
2018-11-10T02:57:06.061Z,48.47
2018-11-10T02:59:34.466Z,49.13
2018-11-10T03:02:02.814Z,49.43
2018-11-10T03:04:31.255Z,49.03
2018-11-10T03:06:59.623Z,46.13
2018-11-10T03:09:28.187Z,43.60
2018-11-10T03:14:30.080Z,40.17
2018-11-10T03:16:58.392Z,48.97
2018-11-10T03:19:26.871Z,43.23
2018-11-10T03:21:55.174Z,47.60
2018-11-10T03:24:23.565Z,45.13
2018-11-10T03:26:51.928Z,41.63
2018-11-10T03:29:20.338Z,44.03
2018-11-10T03:31:48.804Z,47.43
2018-11-10T03:34:17.237Z,47.77
2018-11-10T03:36:45.557Z,44.30
2018-11-10T03:39:13.933Z,41.03
2018-11-10T03:41:42.297Z,41.87
2018-11-10T03:44:10.766Z,40.80
2018-11-10T03:46:39.077Z,48.00
2018-11-10T03:49:07.469Z,51.23
2018-11-10T03:51:35.853Z,47.93
2018-11-10T03:54:04.953Z,48.50
2018-11-10T03:56:33.290Z,45.27
2018-11-10T03:59:01.825Z,44.90
2018-11-10T04:01:30.209Z,41.93
2018-11-10T04:03:58.586Z,52.10
2018-11-10T04:06:26.950Z,43.17
2018-11-10T04:08:55.308Z,47.70
2018-11-10T04:11:23.680Z,44.57
2018-11-10T04:13:52.097Z,44.13
2018-11-10T04:16:20.387Z,46.43
2018-11-10T04:18:49.291Z,43.80
2018-11-10T04:21:17.688Z,45.60
2018-11-10T04:23:46.052Z,43.23
2018-11-10T04:26:14.426Z,37.40
2018-11-10T04:28:42.960Z,39.20
2018-11-10T04:31:11.327Z,45.90
2018-11-10T04:33:39.909Z,47.90
2018-11-10T04:36:08.251Z,45.27
2018-11-10T04:38:36.522Z,45.97
2018-11-10T04:41:05.380Z,47.17
2018-11-10T04:43:33.700Z,42.20
2018-11-10T04:46:02.135Z,45.87
2018-11-10T04:48:31.548Z,44.83
2018-11-10T04:50:59.867Z,51.03
2018-11-10T04:53:28.240Z,47.17
2018-11-10T04:55:57.800Z,49.87
2018-11-10T04:58:26.102Z,51.97
2018-11-10T05:00:54.391Z,56.60
2018-11-10T05:03:22.892Z,49.47
2018-11-10T05:05:51.268Z,49.97
2018-11-10T05:08:19.705Z,53.50
2018-11-10T05:10:48.017Z,61.00
2018-11-10T05:13:16.393Z,60.47
2018-11-10T05:15:44.658Z,57.33
2018-11-10T05:18:12.960Z,62.27
2018-11-10T05:20:41.349Z,54.60
2018-11-10T05:23:09.720Z,53.80
2018-11-10T05:25:38.053Z,58.03
2018-11-10T05:28:06.401Z,58.57
2018-11-10T05:30:34.739Z,59.83
2018-11-10T05:33:03.124Z,58.07
2018-11-10T05:35:31.486Z,56.53
2018-11-10T05:38:00.912Z,58.70
2018-11-10T05:40:29.333Z,56.97
2018-11-10T05:42:57.644Z,56.90
2018-11-10T05:45:25.917Z,54.43
2018-11-10T05:47:54.222Z,57.97
2018-11-10T05:50:22.557Z,57.43
2018-11-10T05:52:51.028Z,52.60
2018-11-10T05:55:20.418Z,61.60
2018-11-10T05:57:48.781Z,58.20
2018-11-10T06:00:17.161Z,47.60
2018-11-10T06:02:45.536Z,55.03
2018-11-10T06:05:13.902Z,50.53
2018-11-10T06:07:42.257Z,52.80
2018-11-10T06:10:11.892Z,50.17
2018-11-10T06:12:40.284Z,49.70
2018-11-10T06:15:09.413Z,46.77
2018-11-10T06:17:37.764Z,54.77
2018-11-10T06:20:07.734Z,46.93
2018-11-10T06:22:36.070Z,38.23
2018-11-10T06:25:04.801Z,52.30
2018-11-10T06:27:33.194Z,43.40
2018-11-10T06:30:01.599Z,43.50
2018-11-10T06:32:30.202Z,50.10
2018-11-10T06:34:58.497Z,51.10
2018-11-10T06:37:26.913Z,48.00
2018-11-10T06:39:55.300Z,42.33
2018-11-10T06:42:23.655Z,49.40
2018-11-10T06:44:51.956Z,49.33
2018-11-10T06:47:20.409Z,41.90
2018-11-10T06:49:48.709Z,56.20
2018-11-10T06:52:17.106Z,52.67
2018-11-10T06:54:45.606Z,58.33
2018-11-10T06:57:13.988Z,65.47
2018-11-10T06:59:42.328Z,59.13
2018-11-10T07:02:10.769Z,67.87
2018-11-10T07:04:39.105Z,66.37
2018-11-10T07:07:07.486Z,66.50
2018-11-10T07:09:35.883Z,67.13
2018-11-10T07:12:04.366Z,73.20
2018-11-10T07:14:32.709Z,66.07
2018-11-10T07:17:01.081Z,70.17
2018-11-10T07:19:29.401Z,68.87
2018-11-10T07:21:57.778Z,64.73
2018-11-10T07:24:26.164Z,63.67
2018-11-10T07:26:54.514Z,64.07
2018-11-10T07:29:22.881Z,64.03
2018-11-10T07:31:51.323Z,70.57
2018-11-10T07:34:19.674Z,72.83
2018-11-10T07:36:47.993Z,66.17
2018-11-10T07:39:16.264Z,62.90
2018-11-10T07:41:44.662Z,64.90
2018-11-10T07:44:12.989Z,66.27
2018-11-10T07:46:41.336Z,60.63
2018-11-10T07:49:09.825Z,47.30
2018-11-10T07:51:38.180Z,57.47
2018-11-10T07:54:06.491Z,55.13
2018-11-10T07:56:34.817Z,60.77
2018-11-10T07:59:03.163Z,61.33
2018-11-10T08:01:31.559Z,57.43
2018-11-10T08:03:59.966Z,63.43
2018-11-10T08:06:28.268Z,59.37
2018-11-10T08:09:04.472Z,61.10
2018-11-10T08:11:33.169Z,59.40
2018-11-10T08:14:01.482Z,54.93
2018-11-10T08:16:29.752Z,59.13
2018-11-10T08:18:58.104Z,54.30
2018-11-10T08:21:26.502Z,57.77
2018-11-10T08:23:54.805Z,58.17
2018-11-10T08:26:23.229Z,56.87
2018-11-10T08:28:51.575Z,54.60
2018-11-10T08:31:20.072Z,64.00
2018-11-10T08:33:48.351Z,48.13
2018-11-10T08:36:16.731Z,62.10
2018-11-10T08:38:45.109Z,55.40
2018-11-10T08:41:13.537Z,64.13
2018-11-10T08:43:41.834Z,62.00
2018-11-10T08:46:10.594Z,64.00
2018-11-10T08:48:40.030Z,58.40
2018-11-10T08:51:08.454Z,56.47
2018-11-10T08:53:37.021Z,62.60
2018-11-10T08:56:05.842Z,55.83
2018-11-10T08:58:34.174Z,59.93
2018-11-10T09:01:02.994Z,58.60
2018-11-10T09:03:31.421Z,54.17
2018-11-10T09:05:59.800Z,54.70
2018-11-10T09:08:28.069Z,50.33
2018-11-10T09:10:56.350Z,51.33
2018-11-10T09:13:24.795Z,55.87
2018-11-10T09:15:53.182Z,47.73
2018-11-10T09:18:21.542Z,56.57
2018-11-10T09:20:49.993Z,52.50
2018-11-10T09:23:28.800Z,51.87
2018-11-10T09:25:57.259Z,62.53
2018-11-10T09:28:25.580Z,63.03
2018-11-10T09:30:54.301Z,62.23
2018-11-10T09:33:22.677Z,57.40
2018-11-10T09:35:51.065Z,53.97
2018-11-10T09:38:19.422Z,59.63
2018-11-10T09:40:47.742Z,52.50
2018-11-10T09:43:16.154Z,56.27
2018-11-10T09:45:44.704Z,58.83
2018-11-10T09:48:13.051Z,58.37
2018-11-10T09:50:41.557Z,48.23
2018-11-10T09:53:12.911Z,53.93
2018-11-10T09:55:41.262Z,56.20
2018-11-10T09:58:09.701Z,49.10
2018-11-10T10:00:38.123Z,52.27
2018-11-10T10:03:06.481Z,51.27
2018-11-10T10:05:34.937Z,49.33
2018-11-10T10:08:03.317Z,43.80
2018-11-10T10:10:31.728Z,49.10
2018-11-10T10:13:00.109Z,50.00
2018-11-10T10:15:28.493Z,52.20
2018-11-10T10:17:56.857Z,44.00
2018-11-10T10:20:25.479Z,48.37
2018-11-10T10:22:53.785Z,46.83
2018-11-10T10:25:22.210Z,50.27
2018-11-10T10:27:50.971Z,38.57
2018-11-10T10:30:20.957Z,45.00
2018-11-10T10:32:49.513Z,39.50
2018-11-10T10:35:20.415Z,43.70
2018-11-10T10:37:49.649Z,41.37
2018-11-10T10:40:18.070Z,46.83
2018-11-10T10:42:46.882Z,43.13
2018-11-10T10:45:18.668Z,51.43
2018-11-10T10:47:47.162Z,40.33
2018-11-10T10:50:16.945Z,45.90
2018-11-10T10:52:45.372Z,50.83
2018-11-10T10:55:15.013Z,40.80
2018-11-10T10:57:45.144Z,49.03
2018-11-10T11:00:19.115Z,40.03
2018-11-10T11:02:52.825Z,48.43
2018-11-10T11:05:26.597Z,51.17
2018-11-10T11:07:55.357Z,48.63
2018-11-10T11:10:23.909Z,45.07
2018-11-10T11:12:52.275Z,51.60
2018-11-10T11:15:21.052Z,49.60
2018-11-10T11:17:49.340Z,48.70
2018-11-10T11:20:17.736Z,46.60
2018-11-10T11:22:46.171Z,45.90
2018-11-10T11:25:15.045Z,40.70
2018-11-10T11:27:43.615Z,45.47
2018-11-10T11:30:11.955Z,43.57
2018-11-10T11:32:40.220Z,50.33
2018-11-10T11:35:11.159Z,48.83
2018-11-10T11:37:39.923Z,47.80
2018-11-10T11:40:10.095Z,46.37
2018-11-10T11:42:38.460Z,46.80
2018-11-10T11:45:08.012Z,54.70
2018-11-10T11:47:36.354Z,48.33
2018-11-10T11:50:05.530Z,48.70
2018-11-10T11:52:33.867Z,51.37
2018-11-10T11:55:02.271Z,55.07
2018-11-10T11:57:30.643Z,61.10
2018-11-10T11:59:58.968Z,52.40
2018-11-10T12:02:27.411Z,47.50
2018-11-10T12:04:55.764Z,41.23
2018-11-10T12:07:24.143Z,49.27
2018-11-10T12:09:52.473Z,55.30
2018-11-10T12:12:20.762Z,47.43
2018-11-10T12:14:50.633Z,49.00
2018-11-10T12:17:19.197Z,54.70
2018-11-10T12:19:47.589Z,57.60
2018-11-10T12:22:15.931Z,61.40
2018-11-10T12:24:44.333Z,55.47
2018-11-10T12:27:12.816Z,54.50
2018-11-10T12:29:41.239Z,58.50
2018-11-10T12:32:10.566Z,56.80
2018-11-10T12:34:38.933Z,52.17
2018-11-10T12:37:10.047Z,62.73
2018-11-10T12:39:38.385Z,58.70
2018-11-10T12:42:06.871Z,53.17
2018-11-10T12:44:35.952Z,52.67
2018-11-10T12:47:06.356Z,53.47
2018-11-10T12:49:34.733Z,56.23
2018-11-10T12:52:04.275Z,45.13
2018-11-10T12:54:32.705Z,51.57
2018-11-10T12:57:00.988Z,53.67
2018-11-10T12:59:29.384Z,59.63
2018-11-10T13:01:58.875Z,51.03
2018-11-10T13:04:29.487Z,56.20
2018-11-10T13:07:00.384Z,54.90
2018-11-10T13:09:29.887Z,53.53
2018-11-10T13:11:59.379Z,47.83
2018-11-10T13:14:28.985Z,56.40
2018-11-10T13:16:57.465Z,49.73
2018-11-10T13:19:25.748Z,48.50
2018-11-10T13:21:54.107Z,48.10
2018-11-10T13:24:22.419Z,50.90
2018-11-10T13:26:50.776Z,53.67
2018-11-10T13:29:19.195Z,51.60
2018-11-10T13:31:47.670Z,49.13
2018-11-10T13:34:16.922Z,46.63
2018-11-10T13:36:45.303Z,45.17
2018-11-10T13:39:13.715Z,46.07
2018-11-10T13:41:42.193Z,57.07
2018-11-10T13:44:10.711Z,44.63
2018-11-10T13:46:39.185Z,41.30
2018-11-10T13:49:07.618Z,42.87
2018-11-10T13:51:36.120Z,48.87
2018-11-10T13:54:04.525Z,50.07
2018-11-10T13:56:33.988Z,46.27
2018-11-10T13:59:02.515Z,49.30
2018-11-10T14:01:31.857Z,49.03
2018-11-10T14:04:01.242Z,47.83
2018-11-10T14:06:29.549Z,42.97
2018-11-10T14:08:57.987Z,47.10
2018-11-10T14:11:30.441Z,46.43
2018-11-10T14:13:58.919Z,45.60
2018-11-10T14:16:29.211Z,45.87
2018-11-10T14:18:58.622Z,49.90
2018-11-10T14:21:27.199Z,46.00
2018-11-10T14:23:55.611Z,50.20
2018-11-10T14:26:25.099Z,43.80
2018-11-10T14:28:54.697Z,44.07
2018-11-10T14:31:23.141Z,46.33
2018-11-10T14:33:51.502Z,49.47
2018-11-10T14:36:20.895Z,47.03
2018-11-10T14:38:49.263Z,44.90
2018-11-10T14:41:18.721Z,50.20
2018-11-10T14:43:47.039Z,45.90
2018-11-10T14:46:15.452Z,41.87
2018-11-10T14:48:43.803Z,39.87
2018-11-10T14:51:12.200Z,39.70
2018-11-10T14:53:40.655Z,43.23
2018-11-10T14:56:08.997Z,37.33
2018-11-10T14:58:37.497Z,40.97
2018-11-10T15:01:07.170Z,45.73
2018-11-10T15:03:35.792Z,43.10
2018-11-10T15:06:04.258Z,38.87
2018-11-10T15:08:32.628Z,42.73
2018-11-10T15:11:00.945Z,36.67
2018-11-10T15:13:29.305Z,45.63
2018-11-10T15:15:57.708Z,35.63
2018-11-10T15:18:26.224Z,43.30
2018-11-10T15:20:54.514Z,37.37
2018-11-10T15:23:22.865Z,39.33
2018-11-10T15:25:51.273Z,29.33
2018-11-10T15:28:20.628Z,43.13
2018-11-10T15:30:49.860Z,37.70
2018-11-10T15:33:18.227Z,41.17
2018-11-10T15:35:47.701Z,37.60
2018-11-10T15:38:16.141Z,36.97
2018-11-10T15:40:44.571Z,36.03
2018-11-10T15:43:13.711Z,36.30
2018-11-10T15:45:42.022Z,46.63
2018-11-10T15:48:10.569Z,45.27
2018-11-10T15:50:39.949Z,38.00
2018-11-10T15:53:09.038Z,35.27
2018-11-10T15:55:37.472Z,34.03
2018-11-10T15:58:05.948Z,33.43
2018-11-10T16:00:34.323Z,34.47
2018-11-10T16:03:02.623Z,29.67
2018-11-10T16:05:31.025Z,36.97
2018-11-10T16:08:00.388Z,33.13
2018-11-10T16:10:28.793Z,32.37
2018-11-10T16:12:57.024Z,32.90
2018-11-10T16:15:25.344Z,31.27
2018-11-10T16:17:53.717Z,29.33
2018-11-10T16:20:22.094Z,29.30
2018-11-10T16:22:51.515Z,28.57
2018-11-10T16:25:19.979Z,29.03
2018-11-10T16:27:49.507Z,27.87
2018-11-10T16:30:18.906Z,31.27
2018-11-10T16:32:47.670Z,32.87
2018-11-10T16:35:16.088Z,33.07
2018-11-10T16:37:44.449Z,34.43
2018-11-10T16:40:14.980Z,32.17
2018-11-10T16:42:44.499Z,32.40
2018-11-10T16:45:13.421Z,35.63
2018-11-10T16:47:41.790Z,36.13
2018-11-10T16:50:10.739Z,42.50
2018-11-10T16:52:39.524Z,35.23
2018-11-10T16:55:08.289Z,42.40
2018-11-10T16:57:36.806Z,36.10
2018-11-10T17:00:08.017Z,39.40
2018-11-10T17:02:36.406Z,39.90
2018-11-10T17:05:05.656Z,43.27
2018-11-10T17:07:35.099Z,40.47
2018-11-10T17:10:05.043Z,36.60
2018-11-10T17:12:33.418Z,38.43
2018-11-10T17:15:01.833Z,37.27
2018-11-10T17:17:30.152Z,38.00
2018-11-10T17:19:58.518Z,42.43
2018-11-10T17:22:26.899Z,33.40
2018-11-10T17:24:55.193Z,37.90
2018-11-10T17:27:24.598Z,46.70
2018-11-10T17:29:53.073Z,41.03
2018-11-10T17:32:21.579Z,46.40
2018-11-10T17:34:50.116Z,32.33
2018-11-10T17:37:18.437Z,42.73
2018-11-10T17:39:46.967Z,62.20
2018-11-10T17:42:15.629Z,61.83
2018-11-10T17:44:46.865Z,65.17
2018-11-10T17:47:15.290Z,56.27
2018-11-10T17:49:43.852Z,52.77
2018-11-10T17:52:12.518Z,53.20
2018-11-10T17:54:40.865Z,49.77
2018-11-10T17:57:09.238Z,43.93
2018-11-10T17:59:37.552Z,49.30
2018-11-10T18:02:05.982Z,56.67
2018-11-10T18:04:34.558Z,50.10
2018-11-10T18:07:02.931Z,44.80
2018-11-10T18:09:31.245Z,45.70
2018-11-10T18:11:59.730Z,44.10
2018-11-10T18:14:28.137Z,42.93
2018-11-10T18:16:56.525Z,43.57
2018-11-10T18:19:24.959Z,43.87
2018-11-10T18:21:53.239Z,45.80
2018-11-10T18:24:21.633Z,39.33
2018-11-10T18:26:50.014Z,48.80
2018-11-10T18:29:18.428Z,49.73
2018-11-10T18:31:46.794Z,45.40
2018-11-10T18:34:15.386Z,46.73
2018-11-10T18:36:43.803Z,47.57
2018-11-10T18:39:12.449Z,45.40
2018-11-10T18:41:41.144Z,43.93
2018-11-10T18:44:10.553Z,45.17
2018-11-10T18:46:39.359Z,40.33
2018-11-10T18:49:07.673Z,44.03
2018-11-10T18:51:36.065Z,39.87
2018-11-10T18:54:04.722Z,41.87
2018-11-10T18:56:33.228Z,40.20
2018-11-10T18:59:01.610Z,41.17
2018-11-10T19:01:30.334Z,48.50
2018-11-10T19:03:58.753Z,44.37
2018-11-10T19:06:27.296Z,47.40
2018-11-10T19:08:55.730Z,44.30
2018-11-10T19:11:25.158Z,45.70
2018-11-10T19:13:53.500Z,45.23
2018-11-10T19:16:21.905Z,41.77
2018-11-10T19:18:51.335Z,46.93
2018-11-10T19:24:07.846Z,42.57
2018-11-10T19:26:39.358Z,41.30
2018-11-10T19:29:07.789Z,39.83
2018-11-10T19:31:36.889Z,40.00
2018-11-10T19:34:07.321Z,46.73
2018-11-10T19:36:35.961Z,42.40
2018-11-10T19:39:06.273Z,42.27
2018-11-10T19:41:35.366Z,45.73
2018-11-10T19:44:03.775Z,47.30
2018-11-10T19:46:32.194Z,46.67
2018-11-10T19:49:00.502Z,46.53
2018-11-10T19:51:29.052Z,47.70
2018-11-10T19:53:57.524Z,48.27
2018-11-10T19:56:25.941Z,49.93
2018-11-10T19:58:55.286Z,43.93
2018-11-10T20:01:23.692Z,49.80
2018-11-10T20:03:52.043Z,47.70
2018-11-10T20:06:20.426Z,42.43
2018-11-10T20:08:48.732Z,43.50
2018-11-10T20:11:17.097Z,39.60
2018-11-10T20:13:45.425Z,39.47
2018-11-10T20:16:13.714Z,48.67
2018-11-10T20:18:42.186Z,39.23
2018-11-10T20:21:10.578Z,47.87
2018-11-10T20:23:39.007Z,41.70
2018-11-10T20:26:07.331Z,46.50
2018-11-10T20:28:36.688Z,42.53
2018-11-10T20:31:05.070Z,42.80
2018-11-10T20:33:33.430Z,43.33
2018-11-10T20:36:01.857Z,45.60
2018-11-10T20:38:30.299Z,36.47
2018-11-10T20:40:58.629Z,34.13
2018-11-10T20:43:27.018Z,45.83
2018-11-10T20:45:55.380Z,48.80
2018-11-10T20:48:23.766Z,45.43
2018-11-10T20:50:52.210Z,46.80
2018-11-10T20:53:20.536Z,49.73
2018-11-10T20:55:49.050Z,46.40
2018-11-10T20:58:17.486Z,41.40
2018-11-10T21:00:50.360Z,48.07
2018-11-10T21:03:18.876Z,42.70
2018-11-10T21:05:47.433Z,47.57
2018-11-10T21:08:15.765Z,50.87
2018-11-10T21:10:44.166Z,43.90
2018-11-10T21:13:12.615Z,50.37
2018-11-10T21:15:40.953Z,49.00
2018-11-10T21:18:09.434Z,48.23
2018-11-10T21:20:37.794Z,49.13
2018-11-10T21:23:06.079Z,47.13
2018-11-10T21:25:34.476Z,52.53
2018-11-10T21:28:02.819Z,53.00
2018-11-10T21:30:31.243Z,46.03
2018-11-10T21:32:59.595Z,51.00
2018-11-10T21:35:29.036Z,50.23
2018-11-10T21:37:57.407Z,45.47
2018-11-10T21:40:25.906Z,48.00
2018-11-10T21:42:55.308Z,45.63
2018-11-10T21:45:23.782Z,51.47
2018-11-10T21:47:52.130Z,41.73
2018-11-10T21:50:20.900Z,50.23
2018-11-10T21:52:49.213Z,44.90
2018-11-10T21:55:18.804Z,44.00
2018-11-10T21:57:47.825Z,44.60
2018-11-10T22:00:17.925Z,46.57
2018-11-10T22:02:46.765Z,46.27
2018-11-10T22:05:15.019Z,47.90
2018-11-10T22:07:43.442Z,42.97
2018-11-10T22:10:13.700Z,43.20
2018-11-10T22:12:42.223Z,48.80
2018-11-10T22:15:12.794Z,47.60
2018-11-10T22:17:42.281Z,49.70
2018-11-10T22:20:12.690Z,47.73
2018-11-10T22:22:41.109Z,45.17
2018-11-10T22:25:10.600Z,41.37
2018-11-10T22:27:40.368Z,44.07
2018-11-10T22:30:10.193Z,47.10
2018-11-10T22:32:38.547Z,44.60
2018-11-10T22:35:07.673Z,37.90
2018-11-10T22:37:36.902Z,40.93
2018-11-10T22:40:06.791Z,45.60
2018-11-10T22:42:35.918Z,39.47
2018-11-10T22:45:05.183Z,50.23
2018-11-10T22:47:33.537Z,42.87
2018-11-10T22:50:01.886Z,39.73
2018-11-10T22:52:30.337Z,47.73
2018-11-10T22:54:58.616Z,43.83
2018-11-10T22:57:27.000Z,44.47
2018-11-10T22:59:55.603Z,46.23
2018-11-10T23:02:24.515Z,54.90
2018-11-10T23:04:53.052Z,42.30
2018-11-10T23:07:21.370Z,46.50
2018-11-10T23:09:49.788Z,42.23
2018-11-10T23:12:18.109Z,42.27
2018-11-10T23:14:46.473Z,39.57
2018-11-10T23:17:15.263Z,38.53
2018-11-10T23:19:43.667Z,43.60
2018-11-10T23:22:12.073Z,39.40
2018-11-10T23:24:40.409Z,37.00
2018-11-10T23:27:08.821Z,38.97
2018-11-10T23:29:37.565Z,40.90
2018-11-10T23:32:06.047Z,41.07
2018-11-10T23:34:34.343Z,38.93
2018-11-10T23:37:02.801Z,38.30
2018-11-10T23:39:31.108Z,43.23
2018-11-10T23:41:59.511Z,43.27
2018-11-10T23:44:27.827Z,40.00
2018-11-10T23:46:56.122Z,42.40
2018-11-10T23:49:24.376Z,41.20
2018-11-10T23:51:52.680Z,42.53
2018-11-10T23:54:20.937Z,39.47
2018-11-10T23:56:49.354Z,40.47
2018-11-10T23:59:17.710Z,37.80
